sensor_id;sensor_type;location;lat;lon;timestamp;temperature;humidity
25582;DHT22;13462;50.764;4.332;2022-09-12T00:01:25;15.20;99.90
25582;DHT22;13462;50.764;4.332;2022-09-12T00:03:57;15.40;99.90
25582;DHT22;13462;50.764;4.332;2022-09-12T00:06:32;15.40;99.90
25582;DHT22;13462;50.764;4.332;2022-09-12T00:09:06;15.10;99.90
25582;DHT22;13462;50.764;4.332;2022-09-12T00:11:35;14.90;99.90
25582;DHT22;13462;50.764;4.332;2022-09-12T00:14:02;14.90;99.90
25582;DHT22;13462;50.764;4.332;2022-09-12T00:16:31;15.00;99.90
25582;DHT22;13462;50.764;4.332;2022-09-12T00:18:57;15.10;99.90
25582;DHT22;13462;50.764;4.332;2022-09-12T00:21:22;15.20;99.90
25582;DHT22;13462;50.764;4.332;2022-09-12T00:23:49;15.10;99.90
25582;DHT22;13462;50.764;4.332;2022-09-12T00:26:15;15.00;99.90
25582;DHT22;13462;50.764;4.332;2022-09-12T00:28:42;14.90;99.90
25582;DHT22;13462;50.764;4.332;2022-09-12T00:31:11;14.70;99.90
25582;DHT22;13462;50.764;4.332;2022-09-12T00:33:37;14.70;99.90
25582;DHT22;13462;50.764;4.332;2022-09-12T00:36:06;14.70;99.90
25582;DHT22;13462;50.764;4.332;2022-09-12T00:38:32;14.80;99.90
25582;DHT22;13462;50.764;4.332;2022-09-12T00:40:58;14.80;99.90
25582;DHT22;13462;50.764;4.332;2022-09-12T00:46:03;14.80;99.90
25582;DHT22;13462;50.764;4.332;2022-09-12T00:48:34;14.80;99.90
25582;DHT22;13462;50.764;4.332;2022-09-12T00:51:03;14.80;99.90
25582;DHT22;13462;50.764;4.332;2022-09-12T00:53:29;14.80;99.90
25582;DHT22;13462;50.764;4.332;2022-09-12T00:55:55;14.80;99.90
25582;DHT22;13462;50.764;4.332;2022-09-12T00:58:25;14.80;99.90
25582;DHT22;13462;50.764;4.332;2022-09-12T01:00:52;15.00;99.90
25582;DHT22;13462;50.764;4.332;2022-09-12T01:03:19;15.10;99.90
25582;DHT22;13462;50.764;4.332;2022-09-12T01:06:01;15.00;99.90
25582;DHT22;13462;50.764;4.332;2022-09-12T01:08:32;15.00;99.90
25582;DHT22;13462;50.764;4.332;2022-09-12T01:10:58;14.90;99.90
25582;DHT22;13462;50.764;4.332;2022-09-12T01:13:24;15.00;99.90
25582;DHT22;13462;50.764;4.332;2022-09-12T01:15:50;15.00;99.90
25582;DHT22;13462;50.764;4.332;2022-09-12T01:18:29;15.10;99.90
25582;DHT22;13462;50.764;4.332;2022-09-12T01:21:07;15.10;99.90
25582;DHT22;13462;50.764;4.332;2022-09-12T01:26:52;15.00;99.90
25582;DHT22;13462;50.764;4.332;2022-09-12T01:38:45;14.90;99.90
25582;DHT22;13462;50.764;4.332;2022-09-12T01:52:36;14.90;99.90
25582;DHT22;13462;50.764;4.332;2022-09-12T01:55:23;14.80;99.90
25582;DHT22;13462;50.764;4.332;2022-09-12T01:57:58;14.90;99.90
25582;DHT22;13462;50.764;4.332;2022-09-12T02:00:27;14.90;99.90
25582;DHT22;13462;50.764;4.332;2022-09-12T02:03:07;15.00;99.90
25582;DHT22;13462;50.764;4.332;2022-09-12T02:05:44;15.00;99.90
25582;DHT22;13462;50.764;4.332;2022-09-12T02:08:24;14.90;99.90
25582;DHT22;13462;50.764;4.332;2022-09-12T02:11:11;14.80;99.90
25582;DHT22;13462;50.764;4.332;2022-09-12T02:13:52;14.80;99.90
25582;DHT22;13462;50.764;4.332;2022-09-12T02:18:54;14.80;99.90
25582;DHT22;13462;50.764;4.332;2022-09-12T02:21:23;14.90;99.90
25582;DHT22;13462;50.764;4.332;2022-09-12T02:23:54;15.10;99.90
25582;DHT22;13462;50.764;4.332;2022-09-12T02:26:24;15.10;99.90
25582;DHT22;13462;50.764;4.332;2022-09-12T02:28:53;15.00;99.90
25582;DHT22;13462;50.764;4.332;2022-09-12T02:34:09;15.10;99.90
25582;DHT22;13462;50.764;4.332;2022-09-12T02:36:47;15.10;99.90
25582;DHT22;13462;50.764;4.332;2022-09-12T02:39:15;15.10;99.90
25582;DHT22;13462;50.764;4.332;2022-09-12T02:41:56;15.10;99.90
25582;DHT22;13462;50.764;4.332;2022-09-12T02:44:23;15.10;99.90
25582;DHT22;13462;50.764;4.332;2022-09-12T02:46:53;15.10;99.90
25582;DHT22;13462;50.764;4.332;2022-09-12T02:49:20;15.10;99.90
25582;DHT22;13462;50.764;4.332;2022-09-12T02:51:47;15.10;99.90
25582;DHT22;13462;50.764;4.332;2022-09-12T02:54:14;15.10;99.90
25582;DHT22;13462;50.764;4.332;2022-09-12T02:56:42;15.10;99.90
25582;DHT22;13462;50.764;4.332;2022-09-12T02:59:09;15.10;99.90
25582;DHT22;13462;50.764;4.332;2022-09-12T03:16:03;15.00;99.90
25582;DHT22;13462;50.764;4.332;2022-09-12T03:18:41;15.10;99.90
25582;DHT22;13462;50.764;4.332;2022-09-12T03:21:22;15.10;99.90
25582;DHT22;13462;50.764;4.332;2022-09-12T03:23:54;15.00;99.90
25582;DHT22;13462;50.764;4.332;2022-09-12T03:26:24;15.00;99.90
25582;DHT22;13462;50.764;4.332;2022-09-12T03:28:52;15.00;99.90
25582;DHT22;13462;50.764;4.332;2022-09-12T03:31:18;14.90;99.90
25582;DHT22;13462;50.764;4.332;2022-09-12T03:33:45;14.90;99.90
25582;DHT22;13462;50.764;4.332;2022-09-12T03:36:22;14.90;99.90
25582;DHT22;13462;50.764;4.332;2022-09-12T03:38:48;14.80;99.90
25582;DHT22;13462;50.764;4.332;2022-09-12T03:41:14;14.90;99.90
25582;DHT22;13462;50.764;4.332;2022-09-12T03:43:39;14.80;99.90
25582;DHT22;13462;50.764;4.332;2022-09-12T03:46:05;14.80;99.90
25582;DHT22;13462;50.764;4.332;2022-09-12T03:48:31;14.80;99.90
25582;DHT22;13462;50.764;4.332;2022-09-12T03:51:03;14.90;99.90
25582;DHT22;13462;50.764;4.332;2022-09-12T03:53:29;14.90;99.90
25582;DHT22;13462;50.764;4.332;2022-09-12T03:55:55;14.90;99.90
25582;DHT22;13462;50.764;4.332;2022-09-12T03:58:21;14.90;99.90
25582;DHT22;13462;50.764;4.332;2022-09-12T04:00:46;14.90;99.90
25582;DHT22;13462;50.764;4.332;2022-09-12T04:03:12;14.80;99.90
25582;DHT22;13462;50.764;4.332;2022-09-12T04:05:37;14.80;99.90
25582;DHT22;13462;50.764;4.332;2022-09-12T04:08:03;14.70;99.90
25582;DHT22;13462;50.764;4.332;2022-09-12T04:10:30;14.70;99.90
25582;DHT22;13462;50.764;4.332;2022-09-12T04:12:55;14.80;99.90
25582;DHT22;13462;50.764;4.332;2022-09-12T04:15:21;14.80;99.90
25582;DHT22;13462;50.764;4.332;2022-09-12T04:17:47;14.80;99.90
25582;DHT22;13462;50.764;4.332;2022-09-12T04:20:13;14.80;99.90
25582;DHT22;13462;50.764;4.332;2022-09-12T04:22:38;14.70;99.90
25582;DHT22;13462;50.764;4.332;2022-09-12T04:25:04;14.70;99.90
25582;DHT22;13462;50.764;4.332;2022-09-12T04:27:30;14.70;99.90
25582;DHT22;13462;50.764;4.332;2022-09-12T04:29:56;14.70;99.90
25582;DHT22;13462;50.764;4.332;2022-09-12T04:32:21;14.70;99.90
25582;DHT22;13462;50.764;4.332;2022-09-12T04:34:47;14.60;99.90
25582;DHT22;13462;50.764;4.332;2022-09-12T04:37:13;14.60;99.90
25582;DHT22;13462;50.764;4.332;2022-09-12T04:39:39;14.60;99.90
25582;DHT22;13462;50.764;4.332;2022-09-12T04:42:05;14.60;99.90
25582;DHT22;13462;50.764;4.332;2022-09-12T04:44:31;14.50;99.90
25582;DHT22;13462;50.764;4.332;2022-09-12T04:46:56;14.50;99.90
25582;DHT22;13462;50.764;4.332;2022-09-12T04:49:22;14.50;99.90
25582;DHT22;13462;50.764;4.332;2022-09-12T04:51:48;14.50;99.90
25582;DHT22;13462;50.764;4.332;2022-09-12T04:54:18;14.50;99.90
25582;DHT22;13462;50.764;4.332;2022-09-12T04:56:45;14.50;99.90
25582;DHT22;13462;50.764;4.332;2022-09-12T04:59:13;14.50;99.90
25582;DHT22;13462;50.764;4.332;2022-09-12T05:01:40;14.60;99.90
25582;DHT22;13462;50.764;4.332;2022-09-12T05:04:06;14.50;99.90
25582;DHT22;13462;50.764;4.332;2022-09-12T05:06:34;14.50;99.90
25582;DHT22;13462;50.764;4.332;2022-09-12T05:09:01;14.50;99.90
25582;DHT22;13462;50.764;4.332;2022-09-12T05:11:29;14.40;99.90
25582;DHT22;13462;50.764;4.332;2022-09-12T05:13:56;14.40;99.90
25582;DHT22;13462;50.764;4.332;2022-09-12T05:16:24;14.40;99.90
25582;DHT22;13462;50.764;4.332;2022-09-12T05:18:51;14.40;99.90
25582;DHT22;13462;50.764;4.332;2022-09-12T05:21:19;14.40;99.90
25582;DHT22;13462;50.764;4.332;2022-09-12T05:23:45;14.50;99.90
25582;DHT22;13462;50.764;4.332;2022-09-12T05:26:15;14.40;99.90
25582;DHT22;13462;50.764;4.332;2022-09-12T05:28:41;14.40;99.90
25582;DHT22;13462;50.764;4.332;2022-09-12T05:31:14;14.30;99.90
25582;DHT22;13462;50.764;4.332;2022-09-12T05:33:42;14.40;99.90
25582;DHT22;13462;50.764;4.332;2022-09-12T05:36:16;14.40;99.90
25582;DHT22;13462;50.764;4.332;2022-09-12T05:38:42;14.40;99.90
25582;DHT22;13462;50.764;4.332;2022-09-12T05:41:12;14.30;99.90
25582;DHT22;13462;50.764;4.332;2022-09-12T05:43:39;14.30;99.90
25582;DHT22;13462;50.764;4.332;2022-09-12T05:46:17;14.40;99.90
25582;DHT22;13462;50.764;4.332;2022-09-12T05:48:45;14.50;99.90
25582;DHT22;13462;50.764;4.332;2022-09-12T05:51:20;14.40;99.90
25582;DHT22;13462;50.764;4.332;2022-09-12T05:53:52;14.50;99.90
25582;DHT22;13462;50.764;4.332;2022-09-12T05:56:20;14.60;99.90
25582;DHT22;13462;50.764;4.332;2022-09-12T05:58:52;14.80;99.90
25582;DHT22;13462;50.764;4.332;2022-09-12T06:01:18;15.10;99.90
25582;DHT22;13462;50.764;4.332;2022-09-12T06:03:46;15.30;99.90
25582;DHT22;13462;50.764;4.332;2022-09-12T06:06:14;15.40;99.90
25582;DHT22;13462;50.764;4.332;2022-09-12T06:08:42;15.40;99.90
25582;DHT22;13462;50.764;4.332;2022-09-12T06:11:12;15.40;99.90
25582;DHT22;13462;50.764;4.332;2022-09-12T06:13:40;15.50;99.90
25582;DHT22;13462;50.764;4.332;2022-09-12T06:16:09;15.70;99.90
25582;DHT22;13462;50.764;4.332;2022-09-12T06:18:36;16.00;99.90
25582;DHT22;13462;50.764;4.332;2022-09-12T06:21:09;16.50;99.90
25582;DHT22;13462;50.764;4.332;2022-09-12T06:23:35;17.20;99.90
25582;DHT22;13462;50.764;4.332;2022-09-12T06:26:02;17.50;99.90
25582;DHT22;13462;50.764;4.332;2022-09-12T06:28:29;17.60;99.90
25582;DHT22;13462;50.764;4.332;2022-09-12T06:31:05;17.30;99.90
25582;DHT22;13462;50.764;4.332;2022-09-12T06:33:38;16.90;99.90
25582;DHT22;13462;50.764;4.332;2022-09-12T06:36:12;16.70;99.90
25582;DHT22;13462;50.764;4.332;2022-09-12T06:38:39;16.90;99.90
25582;DHT22;13462;50.764;4.332;2022-09-12T06:41:06;16.80;99.90
25582;DHT22;13462;50.764;4.332;2022-09-12T06:43:33;16.90;99.90
25582;DHT22;13462;50.764;4.332;2022-09-12T06:46:00;16.80;99.90
25582;DHT22;13462;50.764;4.332;2022-09-12T06:48:27;16.60;99.90
25582;DHT22;13462;50.764;4.332;2022-09-12T06:51:09;16.60;99.90
25582;DHT22;13462;50.764;4.332;2022-09-12T06:53:36;16.60;99.90
25582;DHT22;13462;50.764;4.332;2022-09-12T06:56:14;16.60;99.90
25582;DHT22;13462;50.764;4.332;2022-09-12T06:58:41;16.70;99.90
25582;DHT22;13462;50.764;4.332;2022-09-12T07:01:18;17.40;99.90
25582;DHT22;13462;50.764;4.332;2022-09-12T07:03:50;18.70;99.90
25582;DHT22;13462;50.764;4.332;2022-09-12T07:06:21;20.10;99.90
25582;DHT22;13462;50.764;4.332;2022-09-12T07:08:47;20.90;99.90
25582;DHT22;13462;50.764;4.332;2022-09-12T07:11:21;20.80;99.90
25582;DHT22;13462;50.764;4.332;2022-09-12T07:13:49;20.30;99.90
25582;DHT22;13462;50.764;4.332;2022-09-12T07:16:16;20.10;99.90
25582;DHT22;13462;50.764;4.332;2022-09-12T07:18:42;20.70;99.90
25582;DHT22;13462;50.764;4.332;2022-09-12T07:21:16;21.60;99.90
25582;DHT22;13462;50.764;4.332;2022-09-12T07:23:42;22.70;99.90
25582;DHT22;13462;50.764;4.332;2022-09-12T07:26:12;23.50;99.90
25582;DHT22;13462;50.764;4.332;2022-09-12T07:28:39;24.20;99.90
25582;DHT22;13462;50.764;4.332;2022-09-12T07:31:13;25.20;99.90
25582;DHT22;13462;50.764;4.332;2022-09-12T07:33:39;26.20;99.90
25582;DHT22;13462;50.764;4.332;2022-09-12T07:36:09;26.50;98.30
25582;DHT22;13462;50.764;4.332;2022-09-12T07:41:24;27.50;95.70
25582;DHT22;13462;50.764;4.332;2022-09-12T07:43:52;28.40;93.80
25582;DHT22;13462;50.764;4.332;2022-09-12T07:46:21;29.20;92.10
25582;DHT22;13462;50.764;4.332;2022-09-12T07:48:50;30.00;91.00
25582;DHT22;13462;50.764;4.332;2022-09-12T07:51:19;30.70;88.90
25582;DHT22;13462;50.764;4.332;2022-09-12T07:53:48;31.50;85.00
25582;DHT22;13462;50.764;4.332;2022-09-12T07:56:14;32.20;83.30
25582;DHT22;13462;50.764;4.332;2022-09-12T07:58:41;32.10;78.50
25582;DHT22;13462;50.764;4.332;2022-09-12T08:01:18;31.50;79.80
25582;DHT22;13462;50.764;4.332;2022-09-12T08:03:47;31.30;79.10
25582;DHT22;13462;50.764;4.332;2022-09-12T08:06:18;31.20;79.40
25582;DHT22;13462;50.764;4.332;2022-09-12T08:08:49;30.50;79.20
25582;DHT22;13462;50.764;4.332;2022-09-12T08:11:17;30.00;80.70
25582;DHT22;13462;50.764;4.332;2022-09-12T08:13:44;29.80;81.90
25582;DHT22;13462;50.764;4.332;2022-09-12T08:16:13;29.60;82.20
25582;DHT22;13462;50.764;4.332;2022-09-12T08:18:39;29.60;83.60
25582;DHT22;13462;50.764;4.332;2022-09-12T08:21:11;30.10;82.80
25582;DHT22;13462;50.764;4.332;2022-09-12T08:23:36;30.80;81.30
25582;DHT22;13462;50.764;4.332;2022-09-12T08:26:04;31.00;78.90
25582;DHT22;13462;50.764;4.332;2022-09-12T08:28:31;31.50;79.70
25582;DHT22;13462;50.764;4.332;2022-09-12T08:31:05;31.40;77.80
25582;DHT22;13462;50.764;4.332;2022-09-12T08:33:32;32.00;76.60
25582;DHT22;13462;50.764;4.332;2022-09-12T08:36:15;32.30;75.20
25582;DHT22;13462;50.764;4.332;2022-09-12T08:38:45;31.90;75.80
25582;DHT22;13462;50.764;4.332;2022-09-12T08:44:05;31.30;75.80
25582;DHT22;13462;50.764;4.332;2022-09-12T08:47:00;31.40;76.30
25582;DHT22;13462;50.764;4.332;2022-09-12T08:52:42;31.60;75.40
25582;DHT22;13462;50.764;4.332;2022-09-12T08:55:24;31.80;75.30
25582;DHT22;13462;50.764;4.332;2022-09-12T08:57:51;32.50;73.90
25582;DHT22;13462;50.764;4.332;2022-09-12T09:00:17;33.20;72.90
25582;DHT22;13462;50.764;4.332;2022-09-12T09:08:13;34.30;69.10
25582;DHT22;13462;50.764;4.332;2022-09-12T09:10:58;34.60;67.50
25582;DHT22;13462;50.764;4.332;2022-09-12T09:13:44;34.70;64.20
25582;DHT22;13462;50.764;4.332;2022-09-12T09:16:40;35.50;65.50
25582;DHT22;13462;50.764;4.332;2022-09-12T09:19:19;36.20;60.70
25582;DHT22;13462;50.764;4.332;2022-09-12T09:21:53;36.10;60.90
25582;DHT22;13462;50.764;4.332;2022-09-12T09:24:25;36.90;59.30
25582;DHT22;13462;50.764;4.332;2022-09-12T09:26:57;36.80;57.60
25582;DHT22;13462;50.764;4.332;2022-09-12T09:29:33;36.90;56.90
25582;DHT22;13462;50.764;4.332;2022-09-12T09:32:03;36.60;56.00
25582;DHT22;13462;50.764;4.332;2022-09-12T09:34:34;36.50;56.70
25582;DHT22;13462;50.764;4.332;2022-09-12T09:37:19;36.30;57.60
25582;DHT22;13462;50.764;4.332;2022-09-12T09:45:19;38.10;54.60
25582;DHT22;13462;50.764;4.332;2022-09-12T09:50:47;38.50;54.80
25582;DHT22;13462;50.764;4.332;2022-09-12T09:53:44;38.30;53.30
25582;DHT22;13462;50.764;4.332;2022-09-12T09:56:33;39.20;53.20
25582;DHT22;13462;50.764;4.332;2022-09-12T09:59:25;39.80;51.50
25582;DHT22;13462;50.764;4.332;2022-09-12T10:04:33;40.10;49.90
25582;DHT22;13462;50.764;4.332;2022-09-12T10:07:02;39.90;48.60
25582;DHT22;13462;50.764;4.332;2022-09-12T10:09:31;39.40;49.80
25582;DHT22;13462;50.764;4.332;2022-09-12T10:11:58;39.90;49.50
25582;DHT22;13462;50.764;4.332;2022-09-12T10:14:31;39.20;49.00
25582;DHT22;13462;50.764;4.332;2022-09-12T10:17:00;38.90;49.10
25582;DHT22;13462;50.764;4.332;2022-09-12T10:19:37;38.50;51.00
25582;DHT22;13462;50.764;4.332;2022-09-12T10:22:04;38.10;50.30
25582;DHT22;13462;50.764;4.332;2022-09-12T10:24:39;38.00;51.80
25582;DHT22;13462;50.764;4.332;2022-09-12T10:29:45;38.20;50.60
25582;DHT22;13462;50.764;4.332;2022-09-12T10:32:24;38.20;51.30
25582;DHT22;13462;50.764;4.332;2022-09-12T10:34:53;38.30;51.10
25582;DHT22;13462;50.764;4.332;2022-09-12T10:39:57;38.60;49.10
25582;DHT22;13462;50.764;4.332;2022-09-12T10:42:49;38.70;51.30
25582;DHT22;13462;50.764;4.332;2022-09-12T10:45:19;39.40;49.00
25582;DHT22;13462;50.764;4.332;2022-09-12T10:47:45;38.70;50.80
25582;DHT22;13462;50.764;4.332;2022-09-12T10:50:29;38.50;47.90
25582;DHT22;13462;50.764;4.332;2022-09-12T10:56:21;38.60;49.60
25582;DHT22;13462;50.764;4.332;2022-09-12T11:01:46;38.30;47.80
25582;DHT22;13462;50.764;4.332;2022-09-12T11:15:39;37.80;48.50
25582;DHT22;13462;50.764;4.332;2022-09-12T11:21:08;37.30;48.50
25582;DHT22;13462;50.764;4.332;2022-09-12T11:26:33;37.00;50.50
25582;DHT22;13462;50.764;4.332;2022-09-12T11:34:54;38.30;49.20
25582;DHT22;13462;50.764;4.332;2022-09-12T11:42:46;37.60;47.60
25582;DHT22;13462;50.764;4.332;2022-09-12T11:45:21;37.50;49.60
25582;DHT22;13462;50.764;4.332;2022-09-12T11:47:52;38.00;47.30
25582;DHT22;13462;50.764;4.332;2022-09-12T11:50:27;37.90;48.00
25582;DHT22;13462;50.764;4.332;2022-09-12T11:53:01;38.30;49.10
25582;DHT22;13462;50.764;4.332;2022-09-12T11:55:35;37.90;49.70
25582;DHT22;13462;50.764;4.332;2022-09-12T11:58:01;38.60;48.30
25582;DHT22;13462;50.764;4.332;2022-09-12T12:00:39;38.70;48.30
25582;DHT22;13462;50.764;4.332;2022-09-12T12:03:08;37.90;47.70
25582;DHT22;13462;50.764;4.332;2022-09-12T12:05:58;37.80;48.30
25582;DHT22;13462;50.764;4.332;2022-09-12T12:08:26;38.70;47.80
25582;DHT22;13462;50.764;4.332;2022-09-12T12:11:00;39.30;47.20
25582;DHT22;13462;50.764;4.332;2022-09-12T12:13:35;39.40;46.30
25582;DHT22;13462;50.764;4.332;2022-09-12T12:16:17;38.90;45.50
25582;DHT22;13462;50.764;4.332;2022-09-12T12:18:53;38.80;45.00
25582;DHT22;13462;50.764;4.332;2022-09-12T12:22:21;38.90;47.00
25582;DHT22;13462;50.764;4.332;2022-09-12T12:24:53;38.60;47.30
25582;DHT22;13462;50.764;4.332;2022-09-12T12:27:24;38.50;46.50
25582;DHT22;13462;50.764;4.332;2022-09-12T12:38:33;37.00;50.40
25582;DHT22;13462;50.764;4.332;2022-09-12T12:43:47;37.50;49.10
25582;DHT22;13462;50.764;4.332;2022-09-12T12:46:20;37.60;48.70
25582;DHT22;13462;50.764;4.332;2022-09-12T12:54:00;37.10;46.60
25582;DHT22;13462;50.764;4.332;2022-09-12T12:56:32;36.70;46.20
25582;DHT22;13462;50.764;4.332;2022-09-12T12:59:12;36.10;48.50
25582;DHT22;13462;50.764;4.332;2022-09-12T13:01:47;36.10;48.40
25582;DHT22;13462;50.764;4.332;2022-09-12T13:04:17;36.00;50.70
25582;DHT22;13462;50.764;4.332;2022-09-12T13:06:45;35.50;50.70
25582;DHT22;13462;50.764;4.332;2022-09-12T13:12:05;36.30;50.50
25582;DHT22;13462;50.764;4.332;2022-09-12T13:17:14;35.60;49.70
25582;DHT22;13462;50.764;4.332;2022-09-12T13:19:43;35.80;50.30
25582;DHT22;13462;50.764;4.332;2022-09-12T13:22:10;35.60;53.30
25582;DHT22;13462;50.764;4.332;2022-09-12T13:24:43;34.90;50.00
25582;DHT22;13462;50.764;4.332;2022-09-12T13:27:22;34.80;50.70
25582;DHT22;13462;50.764;4.332;2022-09-12T13:29:48;34.70;51.50
25582;DHT22;13462;50.764;4.332;2022-09-12T13:32:15;35.00;50.70
25582;DHT22;13462;50.764;4.332;2022-09-12T13:42:40;34.70;52.10
25582;DHT22;13462;50.764;4.332;2022-09-12T13:45:24;35.10;50.60
25582;DHT22;13462;50.764;4.332;2022-09-12T13:47:54;35.30;49.10
25582;DHT22;13462;50.764;4.332;2022-09-12T13:50:26;35.10;47.60
25582;DHT22;13462;50.764;4.332;2022-09-12T13:52:55;34.50;51.30
25582;DHT22;13462;50.764;4.332;2022-09-12T13:55:38;34.60;50.70
25582;DHT22;13462;50.764;4.332;2022-09-12T13:58:16;33.50;53.80
25582;DHT22;13462;50.764;4.332;2022-09-12T14:00:43;33.20;52.50
25582;DHT22;13462;50.764;4.332;2022-09-12T14:03:25;32.90;54.90
25582;DHT22;13462;50.764;4.332;2022-09-12T14:06:10;32.80;53.60
25582;DHT22;13462;50.764;4.332;2022-09-12T14:08:40;32.00;55.00
25582;DHT22;13462;50.764;4.332;2022-09-12T14:11:10;32.00;54.10
25582;DHT22;13462;50.764;4.332;2022-09-12T14:13:37;32.10;53.50
25582;DHT22;13462;50.764;4.332;2022-09-12T14:16:04;31.80;54.20
25582;DHT22;13462;50.764;4.332;2022-09-12T14:18:36;31.70;53.80
25582;DHT22;13462;50.764;4.332;2022-09-12T14:23:47;32.00;55.20
25582;DHT22;13462;50.764;4.332;2022-09-12T14:26:14;31.90;54.70
25582;DHT22;13462;50.764;4.332;2022-09-12T14:28:43;31.40;57.00
25582;DHT22;13462;50.764;4.332;2022-09-12T14:31:23;30.70;56.00
25582;DHT22;13462;50.764;4.332;2022-09-12T14:33:54;30.30;57.60
25582;DHT22;13462;50.764;4.332;2022-09-12T14:38:58;29.90;58.00
25582;DHT22;13462;50.764;4.332;2022-09-12T14:41:28;29.60;60.20
25582;DHT22;13462;50.764;4.332;2022-09-12T14:43:57;29.10;58.90
25582;DHT22;13462;50.764;4.332;2022-09-12T14:46:34;28.90;61.40
25582;DHT22;13462;50.764;4.332;2022-09-12T14:51:54;28.50;60.40
25582;DHT22;13462;50.764;4.332;2022-09-12T14:56:55;27.90;61.00
25582;DHT22;13462;50.764;4.332;2022-09-12T14:59:37;27.90;61.10
25582;DHT22;13462;50.764;4.332;2022-09-12T15:04:49;27.90;61.40
25582;DHT22;13462;50.764;4.332;2022-09-12T15:07:25;27.80;61.60
25582;DHT22;13462;50.764;4.332;2022-09-12T15:09:52;27.50;62.60
25582;DHT22;13462;50.764;4.332;2022-09-12T15:12:18;27.60;64.60
25582;DHT22;13462;50.764;4.332;2022-09-12T15:14:44;27.70;62.70
25582;DHT22;13462;50.764;4.332;2022-09-12T15:17:09;27.70;62.70
25582;DHT22;13462;50.764;4.332;2022-09-12T15:19:35;27.60;63.20
25582;DHT22;13462;50.764;4.332;2022-09-12T15:22:01;27.40;65.30
25582;DHT22;13462;50.764;4.332;2022-09-12T15:24:27;27.10;65.40
25582;DHT22;13462;50.764;4.332;2022-09-12T15:26:52;27.30;64.20
25582;DHT22;13462;50.764;4.332;2022-09-12T15:29:18;27.50;66.40
25582;DHT22;13462;50.764;4.332;2022-09-12T15:31:50;27.60;65.50
25582;DHT22;13462;50.764;4.332;2022-09-12T15:34:16;27.70;63.30
25582;DHT22;13462;50.764;4.332;2022-09-12T15:36:41;27.70;64.40
25582;DHT22;13462;50.764;4.332;2022-09-12T15:39:08;27.70;64.30
25582;DHT22;13462;50.764;4.332;2022-09-12T15:41:36;27.40;65.60
25582;DHT22;13462;50.764;4.332;2022-09-12T15:44:04;27.10;65.80
25582;DHT22;13462;50.764;4.332;2022-09-12T15:46:30;27.20;66.20
25582;DHT22;13462;50.764;4.332;2022-09-12T15:48:55;27.30;65.50
25582;DHT22;13462;50.764;4.332;2022-09-12T15:51:21;27.30;64.70
25582;DHT22;13462;50.764;4.332;2022-09-12T15:53:48;27.50;64.80
25582;DHT22;13462;50.764;4.332;2022-09-12T15:56:19;27.50;67.20
25582;DHT22;13462;50.764;4.332;2022-09-12T15:58:45;27.30;67.60
25582;DHT22;13462;50.764;4.332;2022-09-12T16:01:15;27.40;66.60
25582;DHT22;13462;50.764;4.332;2022-09-12T16:03:41;27.40;64.80
25582;DHT22;13462;50.764;4.332;2022-09-12T16:06:07;27.30;65.40
25582;DHT22;13462;50.764;4.332;2022-09-12T16:08:40;27.20;65.50
25582;DHT22;13462;50.764;4.332;2022-09-12T16:11:11;26.90;65.90
25582;DHT22;13462;50.764;4.332;2022-09-12T16:13:39;26.70;68.60
25582;DHT22;13462;50.764;4.332;2022-09-12T16:16:05;26.60;69.50
25582;DHT22;13462;50.764;4.332;2022-09-12T16:18:32;26.40;70.90
25582;DHT22;13462;50.764;4.332;2022-09-12T16:20:57;26.30;74.10
25582;DHT22;13462;50.764;4.332;2022-09-12T16:23:23;26.10;77.30
25582;DHT22;13462;50.764;4.332;2022-09-12T16:25:58;25.90;80.00
25582;DHT22;13462;50.764;4.332;2022-09-12T16:28:25;25.80;82.90
25582;DHT22;13462;50.764;4.332;2022-09-12T16:30:58;25.80;81.60
25582;DHT22;13462;50.764;4.332;2022-09-12T16:33:25;26.00;77.00
25582;DHT22;13462;50.764;4.332;2022-09-12T16:35:51;26.20;82.20
25582;DHT22;13462;50.764;4.332;2022-09-12T16:38:20;26.50;78.50
25582;DHT22;13462;50.764;4.332;2022-09-12T16:40:46;26.80;77.10
25582;DHT22;13462;50.764;4.332;2022-09-12T16:43:13;27.10;70.50
25582;DHT22;13462;50.764;4.332;2022-09-12T16:45:42;27.10;71.00
25582;DHT22;13462;50.764;4.332;2022-09-12T16:48:08;27.10;70.20
25582;DHT22;13462;50.764;4.332;2022-09-12T16:50:34;26.90;69.90
25582;DHT22;13462;50.764;4.332;2022-09-12T16:53:00;26.60;70.30
25582;DHT22;13462;50.764;4.332;2022-09-12T16:55:26;26.60;73.30
25582;DHT22;13462;50.764;4.332;2022-09-12T16:57:53;26.60;71.00
25582;DHT22;13462;50.764;4.332;2022-09-12T17:00:19;26.70;72.00
25582;DHT22;13462;50.764;4.332;2022-09-12T17:02:45;26.70;71.50
25582;DHT22;13462;50.764;4.332;2022-09-12T17:05:12;26.60;69.60
25582;DHT22;13462;50.764;4.332;2022-09-12T17:07:40;26.40;68.70
25582;DHT22;13462;50.764;4.332;2022-09-12T17:10:07;26.30;70.00
25582;DHT22;13462;50.764;4.332;2022-09-12T17:12:33;26.20;71.10
25582;DHT22;13462;50.764;4.332;2022-09-12T17:14:59;26.00;71.90
25582;DHT22;13462;50.764;4.332;2022-09-12T17:17:25;25.80;74.40
25582;DHT22;13462;50.764;4.332;2022-09-12T17:19:51;25.70;72.50
25582;DHT22;13462;50.764;4.332;2022-09-12T17:22:17;25.70;71.90
25582;DHT22;13462;50.764;4.332;2022-09-12T17:24:43;25.60;79.10
25582;DHT22;13462;50.764;4.332;2022-09-12T17:27:09;25.50;81.30
25582;DHT22;13462;50.764;4.332;2022-09-12T17:29:35;25.40;84.50
25582;DHT22;13462;50.764;4.332;2022-09-12T17:32:03;25.20;84.40
25582;DHT22;13462;50.764;4.332;2022-09-12T17:34:29;25.00;84.40
25582;DHT22;13462;50.764;4.332;2022-09-12T17:36:57;24.80;83.10
25582;DHT22;13462;50.764;4.332;2022-09-12T17:39:23;24.60;83.30
25582;DHT22;13462;50.764;4.332;2022-09-12T17:41:49;24.40;82.80
25582;DHT22;13462;50.764;4.332;2022-09-12T17:44:16;24.30;81.80
25582;DHT22;13462;50.764;4.332;2022-09-12T17:46:43;24.30;78.50
25582;DHT22;13462;50.764;4.332;2022-09-12T17:49:16;24.20;80.30
25582;DHT22;13462;50.764;4.332;2022-09-12T17:51:43;24.00;83.30
25582;DHT22;13462;50.764;4.332;2022-09-12T17:54:14;23.80;88.00
25582;DHT22;13462;50.764;4.332;2022-09-12T17:56:41;23.60;88.40
25582;DHT22;13462;50.764;4.332;2022-09-12T17:59:12;23.50;88.50
25582;DHT22;13462;50.764;4.332;2022-09-12T18:01:38;23.50;90.20
25582;DHT22;13462;50.764;4.332;2022-09-12T18:04:23;23.30;92.40
25582;DHT22;13462;50.764;4.332;2022-09-12T18:06:48;22.90;94.40
25582;DHT22;13462;50.764;4.332;2022-09-12T18:09:20;22.80;95.30
25582;DHT22;13462;50.764;4.332;2022-09-12T18:11:47;22.50;97.40
25582;DHT22;13462;50.764;4.332;2022-09-12T18:14:13;22.30;99.30
25582;DHT22;13462;50.764;4.332;2022-09-12T18:16:39;22.30;98.70
25582;DHT22;13462;50.764;4.332;2022-09-12T18:19:05;22.30;99.70
25582;DHT22;13462;50.764;4.332;2022-09-12T18:21:31;22.20;99.90
25582;DHT22;13462;50.764;4.332;2022-09-12T18:23:57;22.10;99.90